createdAt,value
2018-07-02T00:00:25.561Z,38.37
2018-07-02T00:02:54.623Z,37.98
2018-07-02T00:05:24.839Z,37.82
2018-07-02T00:07:53.873Z,37.53
2018-07-02T00:10:22.967Z,37.40
2018-07-02T00:12:52.001Z,38.21
2018-07-02T00:15:21.045Z,37.91
2018-07-02T00:17:50.118Z,37.55
2018-07-02T00:20:19.145Z,37.67
2018-07-02T00:22:48.232Z,38.06
2018-07-02T00:25:17.284Z,38.01
2018-07-02T00:27:46.348Z,37.93
2018-07-02T00:30:15.390Z,38.75
2018-07-02T00:32:44.479Z,38.50
2018-07-02T00:35:13.543Z,38.76
2018-07-02T00:37:42.670Z,38.04
2018-07-02T00:40:11.688Z,37.94
2018-07-02T00:42:41.517Z,37.81
2018-07-02T00:45:10.615Z,37.79
2018-07-02T00:47:39.703Z,38.50
2018-07-02T00:50:08.787Z,38.04
2018-07-02T00:52:37.866Z,38.60
2018-07-02T00:55:06.953Z,38.35
2018-07-02T00:57:36.058Z,38.54
2018-07-02T01:00:14.283Z,38.55
2018-07-02T01:02:43.423Z,38.46
2018-07-02T01:05:13.229Z,38.65
2018-07-02T01:07:43.637Z,38.19
2018-07-02T01:10:12.725Z,38.83
2018-07-02T01:12:41.889Z,38.37
2018-07-02T01:15:10.935Z,38.08
2018-07-02T01:17:40.086Z,38.59
2018-07-02T01:20:09.272Z,38.21
2018-07-02T01:22:38.294Z,38.53
2018-07-02T01:25:07.397Z,39.38
2018-07-02T01:27:36.485Z,38.95
2018-07-02T01:30:06.678Z,39.28
2018-07-02T01:32:35.742Z,39.59
2018-07-02T01:35:04.837Z,39.70
2018-07-02T01:37:33.868Z,39.46
2018-07-02T01:40:02.967Z,39.54
2018-07-02T01:42:31.977Z,39.40
2018-07-02T01:45:01.074Z,40.14
2018-07-02T01:47:30.118Z,39.52
2018-07-02T01:49:59.181Z,40.02
2018-07-02T01:52:28.258Z,40.50
2018-07-02T01:54:57.366Z,40.31
2018-07-02T01:57:26.410Z,40.65
2018-07-02T01:59:55.561Z,39.87
2018-07-02T02:02:24.657Z,40.17
2018-07-02T02:04:53.696Z,39.78
2018-07-02T02:07:23.245Z,40.42
2018-07-02T02:09:52.583Z,39.86
2018-07-02T02:12:21.851Z,39.86
2018-07-02T02:14:51.035Z,40.79
2018-07-02T02:17:20.137Z,39.88
2018-07-02T02:19:49.213Z,40.32
2018-07-02T02:22:18.285Z,40.74
2018-07-02T02:24:47.404Z,40.66
2018-07-02T02:27:16.613Z,40.68
2018-07-02T02:29:45.696Z,40.21
2018-07-02T02:32:15.238Z,40.95
2018-07-02T02:34:44.298Z,40.30
2018-07-02T02:37:13.358Z,40.68
2018-07-02T02:39:42.476Z,41.15
2018-07-02T02:42:11.619Z,40.89
2018-07-02T02:44:40.658Z,41.82
2018-07-02T02:47:09.775Z,41.58
2018-07-02T02:49:38.959Z,41.47
2018-07-02T02:52:08.051Z,41.88
2018-07-02T02:54:37.095Z,41.24
2018-07-02T02:57:06.273Z,42.15
2018-07-02T02:59:35.369Z,42.37
2018-07-02T03:02:04.477Z,42.68
2018-07-02T03:04:33.558Z,42.46
2018-07-02T03:07:03.120Z,43.23
2018-07-02T03:09:32.164Z,43.75
2018-07-02T03:12:01.264Z,42.85
2018-07-02T03:14:30.654Z,43.45
2018-07-02T03:16:59.725Z,43.43
2018-07-02T03:19:29.240Z,42.83
2018-07-02T03:21:58.354Z,43.35
2018-07-02T03:24:27.450Z,42.77
2018-07-02T03:26:56.807Z,43.07
2018-07-02T03:29:26.000Z,43.23
2018-07-02T03:31:55.058Z,43.30
2018-07-02T03:34:24.137Z,43.26
2018-07-02T03:36:53.190Z,43.97
2018-07-02T03:39:22.300Z,44.39
2018-07-02T03:41:51.386Z,43.75
2018-07-02T03:44:20.469Z,44.19
2018-07-02T03:46:49.524Z,43.29
2018-07-02T03:49:18.611Z,44.26
2018-07-02T03:51:47.681Z,44.80
2018-07-02T03:54:16.777Z,43.80
2018-07-02T03:56:45.874Z,44.36
2018-07-02T03:59:15.076Z,44.73
2018-07-02T04:01:44.151Z,44.66
2018-07-02T04:04:13.265Z,44.93
2018-07-02T04:06:42.492Z,43.91
2018-07-02T04:09:13.756Z,44.23
2018-07-02T04:11:42.896Z,43.45
2018-07-02T04:14:11.943Z,43.88
2018-07-02T04:16:41.139Z,44.60
2018-07-02T04:19:12.057Z,44.63
2018-07-02T04:21:42.441Z,44.48
2018-07-02T04:24:11.648Z,44.65
2018-07-02T04:26:41.796Z,44.23
2018-07-02T04:29:11.513Z,43.69
2018-07-02T04:31:40.580Z,44.34
2018-07-02T04:34:09.703Z,43.68
2018-07-02T04:36:39.204Z,43.46
2018-07-02T04:39:08.844Z,43.59
2018-07-02T04:41:38.195Z,43.19
2018-07-02T04:44:08.178Z,43.17
2018-07-02T04:46:37.428Z,43.48
2018-07-02T04:49:06.533Z,43.23
2018-07-02T04:51:35.673Z,43.78
2018-07-02T04:54:04.757Z,43.16
2018-07-02T04:56:33.929Z,43.12
2018-07-02T04:59:03.001Z,43.18
2018-07-02T05:01:32.082Z,43.79
2018-07-02T05:04:01.241Z,43.88
2018-07-02T05:06:30.300Z,43.58
2018-07-02T05:08:59.506Z,43.43
2018-07-02T05:11:28.699Z,42.85
2018-07-02T05:13:57.808Z,43.13
2018-07-02T05:16:26.925Z,43.18
2018-07-02T05:18:56.005Z,43.73
2018-07-02T05:21:25.075Z,42.98
2018-07-02T05:23:54.174Z,43.17
2018-07-02T05:26:23.227Z,42.58
2018-07-02T05:28:52.318Z,43.53
2018-07-02T05:31:21.409Z,43.39
2018-07-02T05:33:50.474Z,43.02
2018-07-02T05:36:19.571Z,42.67
2018-07-02T05:38:48.698Z,42.86
2018-07-02T05:41:17.809Z,43.12
2018-07-02T05:43:46.926Z,42.97
2018-07-02T05:46:16.022Z,42.92
2018-07-02T05:48:45.112Z,42.30
2018-07-02T05:51:14.420Z,42.80
2018-07-02T05:53:43.569Z,42.97
2018-07-02T05:56:12.721Z,42.29
2018-07-02T05:58:41.894Z,42.62
2018-07-02T06:01:11.028Z,42.41
2018-07-02T06:03:40.179Z,42.23
2018-07-02T06:06:09.214Z,42.63
2018-07-02T06:08:38.916Z,42.02
2018-07-02T06:11:08.017Z,42.62
2018-07-02T06:13:37.121Z,41.54
2018-07-02T06:16:06.273Z,42.09
2018-07-02T06:18:35.368Z,41.76
2018-07-02T06:21:04.669Z,41.55
2018-07-02T06:23:33.789Z,41.50
2018-07-02T06:26:02.880Z,41.21
2018-07-02T06:28:31.957Z,40.56
2018-07-02T06:31:01.068Z,41.58
2018-07-02T06:33:30.145Z,40.26
2018-07-02T06:35:59.465Z,40.08
2018-07-02T06:38:28.582Z,39.52
2018-07-02T06:40:57.756Z,40.26
2018-07-02T06:43:26.902Z,39.86
2018-07-02T06:45:56.010Z,39.24
2018-07-02T06:48:25.157Z,39.13
2018-07-02T06:50:54.832Z,39.37
2018-07-02T06:53:23.888Z,39.61
2018-07-02T06:55:52.980Z,39.52
2018-07-02T06:58:22.051Z,38.86
2018-07-02T07:00:51.153Z,38.75
2018-07-02T07:03:20.308Z,39.04
2018-07-02T07:05:49.385Z,38.08
2018-07-02T07:08:18.807Z,38.83
2018-07-02T07:10:47.890Z,38.66
2018-07-02T07:13:17.112Z,38.16
2018-07-02T07:15:46.534Z,37.59
2018-07-02T07:18:15.731Z,38.43
2018-07-02T07:20:44.834Z,37.78
2018-07-02T07:23:14.568Z,37.89
2018-07-02T07:25:43.738Z,36.97
2018-07-02T07:28:12.837Z,36.84
2018-07-02T07:30:42.537Z,36.70
2018-07-02T07:33:11.605Z,36.45
2018-07-02T07:35:40.935Z,37.42
2018-07-02T07:38:10.074Z,37.11
2018-07-02T07:40:39.194Z,36.30
2018-07-02T07:43:08.265Z,35.69
2018-07-02T07:45:37.395Z,36.54
2018-07-02T07:48:06.658Z,36.28
2018-07-02T07:50:35.733Z,35.58
2018-07-02T07:53:05.525Z,35.22
2018-07-02T07:55:34.709Z,35.82
2018-07-02T07:58:03.995Z,35.76
2018-07-02T08:00:33.059Z,35.58
2018-07-02T08:03:02.139Z,35.36
2018-07-02T08:05:31.161Z,35.10
2018-07-02T08:08:00.318Z,34.07
2018-07-02T08:10:29.480Z,33.98
2018-07-02T08:12:58.497Z,34.78
2018-07-02T08:15:27.597Z,34.80
2018-07-02T08:17:57.255Z,33.78
2018-07-02T08:20:26.365Z,34.09
2018-07-02T08:22:55.799Z,33.89
2018-07-02T08:25:24.941Z,33.59
2018-07-02T08:27:54.105Z,34.17
2018-07-02T08:30:23.217Z,33.58
2018-07-02T08:32:52.269Z,33.99
2018-07-02T08:35:21.330Z,33.17
2018-07-02T08:37:50.502Z,34.00
2018-07-02T08:40:19.615Z,33.78
2018-07-02T08:42:48.778Z,33.31
2018-07-02T08:45:17.889Z,33.77
2018-07-02T08:47:46.939Z,32.60
2018-07-02T08:50:16.036Z,32.92
2018-07-02T08:52:45.188Z,32.68
2018-07-02T08:55:14.312Z,32.88
2018-07-02T08:57:43.412Z,32.10
2018-07-02T09:00:12.594Z,31.97
2018-07-02T09:02:41.741Z,32.81
2018-07-02T09:05:10.873Z,32.39
2018-07-02T09:07:40.013Z,31.50
2018-07-02T09:10:09.173Z,32.63
2018-07-02T09:12:38.298Z,32.48
2018-07-02T09:15:07.482Z,31.78
2018-07-02T09:17:36.604Z,31.02
2018-07-02T09:20:05.799Z,30.89
2018-07-02T09:22:34.897Z,31.31
2018-07-02T09:25:04.502Z,30.97
2018-07-02T09:27:33.761Z,30.61
2018-07-02T09:30:03.086Z,30.46
2018-07-02T09:32:32.873Z,29.80
2018-07-02T09:35:01.899Z,29.59
2018-07-02T09:37:31.884Z,29.28
2018-07-02T09:40:01.045Z,28.69
2018-07-02T09:42:30.217Z,28.89
2018-07-02T09:44:59.306Z,29.60
2018-07-02T09:47:28.414Z,28.88
2018-07-02T09:49:57.950Z,28.25
2018-07-02T09:52:27.081Z,29.30
2018-07-02T09:54:56.254Z,29.29
2018-07-02T09:57:25.366Z,28.37
2018-07-02T09:59:54.505Z,29.34
2018-07-02T10:02:23.709Z,27.92
2018-07-02T10:04:53.235Z,27.69
2018-07-02T10:07:22.370Z,27.66
2018-07-02T10:09:51.500Z,28.45
2018-07-02T10:12:20.849Z,28.37
2018-07-02T10:14:50.053Z,28.02
2018-07-02T10:17:19.289Z,26.68
2018-07-02T10:19:48.337Z,26.91
2018-07-02T10:22:17.487Z,26.91
2018-07-02T10:24:46.675Z,27.35
2018-07-02T10:27:15.810Z,27.24
2018-07-02T10:29:45.557Z,26.32
2018-07-02T10:32:14.845Z,27.37
2018-07-02T10:34:43.913Z,25.94
2018-07-02T10:37:13.042Z,27.08
2018-07-02T10:39:42.215Z,26.56
2018-07-02T10:42:11.230Z,26.42
2018-07-02T10:44:40.429Z,26.57
2018-07-02T10:47:09.470Z,25.53
2018-07-02T10:49:38.594Z,26.11
2018-07-02T10:52:07.765Z,26.19
2018-07-02T10:54:36.873Z,26.34
2018-07-02T10:57:06.005Z,25.30
2018-07-02T10:59:35.374Z,26.30
2018-07-02T11:02:04.509Z,26.55
2018-07-02T11:04:33.669Z,26.01
2018-07-02T11:07:02.773Z,26.60
2018-07-02T11:09:31.857Z,26.27
2018-07-02T11:12:01.001Z,26.31
2018-07-02T11:14:30.201Z,24.96
2018-07-02T11:16:59.290Z,25.14
2018-07-02T11:19:29.015Z,24.52
2018-07-02T11:21:58.177Z,24.07
2018-07-02T11:24:27.324Z,25.94
2018-07-02T11:26:56.461Z,25.39
2018-07-02T11:29:25.534Z,24.68
2018-07-02T11:31:54.775Z,23.45
2018-07-02T11:34:23.893Z,23.49
2018-07-02T11:36:52.980Z,23.41
2018-07-02T11:39:22.170Z,23.37
2018-07-02T11:41:51.435Z,23.75
2018-07-02T11:44:20.522Z,23.38
2018-07-02T11:46:49.633Z,22.47
2018-07-02T11:49:18.817Z,23.49
2018-07-02T11:51:47.964Z,24.58
2018-07-02T11:54:17.153Z,24.38
2018-07-02T11:56:46.313Z,22.96
2018-07-02T11:59:15.390Z,23.57
2018-07-02T12:01:44.467Z,23.65
2018-07-02T12:04:13.612Z,24.21
2018-07-02T12:06:42.776Z,23.23
2018-07-02T12:09:12.687Z,24.00
2018-07-02T12:11:42.396Z,23.06
2018-07-02T12:14:11.850Z,22.68
2018-07-02T12:16:41.021Z,21.87
2018-07-02T12:19:10.117Z,22.02
2018-07-02T12:21:39.252Z,23.23
2018-07-02T12:24:08.437Z,22.67
2018-07-02T12:26:37.560Z,21.99
2018-07-02T12:29:06.690Z,21.53
2018-07-02T12:31:35.814Z,21.41
2018-07-02T12:34:05.125Z,20.26
2018-07-02T12:36:34.170Z,19.83
2018-07-02T12:39:03.316Z,20.54
2018-07-02T12:41:32.431Z,20.71
2018-07-02T12:44:01.558Z,20.68
2018-07-02T12:46:30.632Z,21.86
2018-07-02T12:49:00.272Z,21.36
2018-07-02T12:51:30.278Z,21.33
2018-07-02T12:53:59.453Z,22.02
2018-07-02T12:56:28.565Z,20.30
2018-07-02T12:58:57.676Z,20.98
2018-07-02T13:01:26.833Z,20.15
2018-07-02T13:03:55.953Z,20.97
2018-07-02T13:06:25.049Z,20.64
2018-07-02T13:08:54.325Z,20.91
2018-07-02T13:11:23.478Z,21.07
2018-07-02T13:13:53.262Z,20.67
2018-07-02T13:16:22.391Z,20.70
2018-07-02T13:18:51.503Z,20.59
2018-07-02T13:21:20.682Z,21.00
2018-07-02T13:23:49.808Z,19.93
2018-07-02T13:26:18.956Z,19.81
2018-07-02T13:28:48.153Z,19.69
2018-07-02T13:31:17.457Z,20.13
2018-07-02T13:33:46.750Z,19.85
2018-07-02T13:36:16.495Z,20.83
2018-07-02T13:38:45.803Z,20.46
2018-07-02T13:41:14.874Z,19.59
2018-07-02T13:43:43.925Z,19.55
2018-07-02T13:46:13.047Z,19.42
2018-07-02T13:48:42.972Z,21.16
2018-07-02T13:51:12.336Z,20.47
2018-07-02T13:53:41.365Z,20.83
2018-07-02T13:56:11.358Z,20.83
2018-07-02T13:58:40.700Z,20.33
2018-07-02T14:01:09.994Z,20.40
2018-07-02T14:03:39.138Z,19.88
2018-07-02T14:06:08.383Z,20.27
2018-07-02T14:08:37.545Z,20.09
2018-07-02T14:11:06.763Z,19.58
2018-07-02T14:13:35.936Z,19.21
2018-07-02T14:16:05.170Z,19.66
2018-07-02T14:18:34.412Z,19.78
2018-07-02T14:21:03.472Z,18.87
2018-07-02T14:23:32.680Z,19.25
2018-07-02T14:26:01.750Z,18.39
2018-07-02T14:28:30.841Z,17.93
2018-07-02T14:30:59.929Z,18.88
2018-07-02T14:33:29.077Z,18.79
2018-07-02T14:35:58.449Z,17.70
2018-07-02T14:38:27.613Z,18.39
2018-07-02T14:40:56.693Z,18.59
2018-07-02T14:43:26.051Z,18.90
2018-07-02T14:45:55.191Z,18.42
2018-07-02T14:48:24.330Z,18.21
2018-07-02T14:50:54.251Z,18.42
2018-07-02T14:53:23.323Z,17.85
2018-07-02T14:55:52.426Z,18.05
2018-07-02T14:58:21.558Z,17.71
2018-07-02T15:00:50.611Z,17.78
2018-07-02T15:03:19.835Z,17.44
2018-07-02T15:05:48.894Z,17.76
2018-07-02T15:08:18.007Z,17.12
2018-07-02T15:10:47.446Z,17.59
2018-07-02T15:13:16.601Z,17.16
2018-07-02T15:15:45.758Z,17.68
2018-07-02T15:18:15.359Z,16.87
2018-07-02T15:20:44.520Z,17.39
2018-07-02T15:23:14.142Z,16.92
2018-07-02T15:25:43.315Z,17.00
2018-07-02T15:28:12.772Z,16.79
2018-07-02T15:30:42.010Z,16.13
2018-07-02T15:33:11.118Z,16.87
2018-07-02T15:35:40.265Z,17.72
2018-07-02T15:38:09.424Z,17.32
2018-07-02T15:40:38.618Z,16.64
2018-07-02T15:43:07.897Z,15.87
2018-07-02T15:45:37.067Z,15.46
2018-07-02T15:48:06.601Z,15.30
2018-07-02T15:50:35.874Z,15.19
2018-07-02T15:53:05.123Z,15.61
2018-07-02T15:55:34.340Z,14.60
2018-07-02T15:58:03.608Z,15.01
2018-07-02T16:00:32.797Z,14.81
2018-07-02T16:03:01.902Z,15.08
2018-07-02T16:05:31.792Z,15.96
2018-07-02T16:08:00.914Z,16.57
2018-07-02T16:10:30.024Z,16.85
2018-07-02T16:12:59.182Z,15.65
2018-07-02T16:15:28.293Z,16.22
2018-07-02T16:17:57.327Z,16.12
2018-07-02T16:20:26.397Z,15.57
2018-07-02T16:22:55.595Z,15.62
2018-07-02T16:25:24.652Z,15.34
2018-07-02T16:27:53.726Z,15.24
2018-07-02T16:30:22.831Z,14.78
2018-07-02T16:32:51.982Z,15.00
2018-07-02T16:35:21.124Z,14.85
2018-07-02T16:37:50.329Z,14.60
2018-07-02T16:40:19.479Z,14.65
2018-07-02T16:42:49.243Z,14.47
2018-07-02T16:45:18.370Z,14.35
2018-07-02T16:47:47.762Z,14.90
2018-07-02T16:50:16.829Z,14.84
2018-07-02T16:52:46.039Z,14.97
2018-07-02T16:55:15.135Z,14.63
2018-07-02T16:57:44.238Z,15.12
2018-07-02T17:00:13.427Z,14.64
2018-07-02T17:02:42.521Z,16.10
2018-07-02T17:05:11.633Z,16.23
2018-07-02T17:07:40.753Z,17.10
2018-07-02T17:10:09.946Z,17.33
2018-07-02T17:12:39.083Z,17.78
2018-07-02T17:15:08.183Z,18.06
2018-07-02T17:17:37.359Z,18.40
2018-07-02T17:20:07.238Z,19.77
2018-07-02T17:22:36.592Z,19.76
2018-07-02T17:25:05.729Z,20.61
2018-07-02T17:27:34.844Z,20.06
2018-07-02T17:30:04.224Z,20.01
2018-07-02T17:32:33.368Z,19.99
2018-07-02T17:35:02.515Z,20.09
2018-07-02T17:37:31.689Z,20.22
2018-07-02T17:40:00.860Z,19.94
2018-07-02T17:42:29.954Z,20.17
2018-07-02T17:44:59.146Z,21.39
2018-07-02T17:47:28.205Z,21.28
2018-07-02T17:49:57.325Z,20.38
2018-07-02T17:52:26.433Z,21.25
2018-07-02T17:54:55.569Z,21.78
2018-07-02T17:57:24.704Z,21.77
2018-07-02T17:59:53.823Z,21.26
2018-07-02T18:02:24.109Z,20.44
2018-07-02T18:04:53.416Z,21.52
2018-07-02T18:07:22.645Z,21.79
2018-07-02T18:09:51.781Z,22.44
2018-07-02T18:12:21.555Z,21.91
2018-07-02T18:14:50.653Z,21.96
2018-07-02T18:17:20.070Z,22.59
2018-07-02T18:19:49.224Z,21.85
2018-07-02T18:22:18.316Z,22.17
2018-07-02T18:24:47.354Z,21.57
2018-07-02T18:27:16.486Z,22.70
2018-07-02T18:29:45.642Z,22.34
2018-07-02T18:32:14.837Z,22.18
2018-07-02T18:34:43.857Z,23.17
2018-07-02T18:37:12.953Z,22.53
2018-07-02T18:39:42.018Z,23.26
2018-07-02T18:42:11.198Z,22.59
2018-07-02T18:44:40.378Z,22.74
2018-07-02T18:47:09.491Z,22.69
2018-07-02T18:49:38.664Z,23.51
2018-07-02T18:52:07.789Z,22.94
2018-07-02T18:54:36.864Z,24.04
2018-07-02T18:57:07.095Z,24.23
2018-07-02T18:59:36.362Z,25.85
2018-07-02T19:02:05.850Z,24.47
2018-07-02T19:04:35.056Z,24.90
2018-07-02T19:07:04.130Z,24.92
2018-07-02T19:09:34.208Z,24.29
2018-07-02T19:12:03.671Z,25.16
2018-07-02T19:14:32.858Z,24.93
2018-07-02T19:17:01.977Z,24.32
2018-07-02T19:19:31.106Z,24.98
2018-07-02T19:22:00.285Z,26.37
2018-07-02T19:24:29.389Z,25.33
2018-07-02T19:26:58.494Z,25.20
2018-07-02T19:29:27.824Z,25.84
2018-07-02T19:31:57.603Z,27.74
2018-07-02T19:34:26.999Z,29.65
2018-07-02T19:36:57.530Z,26.62
2018-07-02T19:39:26.637Z,27.11
2018-07-02T19:41:55.978Z,26.62
2018-07-02T19:44:25.137Z,29.34
2018-07-02T19:46:54.674Z,28.65
2018-07-02T19:49:23.729Z,27.31
2018-07-02T19:51:53.032Z,29.05
2018-07-02T19:54:22.235Z,30.05
2018-07-02T19:56:52.068Z,29.36
2018-07-02T19:59:21.229Z,29.58
2018-07-02T20:01:50.334Z,29.93
2018-07-02T20:04:19.458Z,30.85
2018-07-02T20:06:48.587Z,29.01
2018-07-02T20:09:17.652Z,28.88
2018-07-02T20:11:46.809Z,27.91
2018-07-02T20:14:15.866Z,28.14
2018-07-02T20:16:45.246Z,28.79
2018-07-02T20:19:14.341Z,28.13
2018-07-02T20:21:43.404Z,29.01
2018-07-02T20:24:12.473Z,29.08
2018-07-02T20:26:41.622Z,28.19
2018-07-02T20:29:11.309Z,29.14
2018-07-02T20:31:41.533Z,28.87
2018-07-02T20:34:10.581Z,29.49
2018-07-02T20:36:39.694Z,29.77
2018-07-02T20:39:10.667Z,30.14
2018-07-02T20:41:39.754Z,30.56
2018-07-02T20:44:08.839Z,31.14
2018-07-02T20:46:37.925Z,32.31
2018-07-02T20:49:07.006Z,32.43
2018-07-02T20:51:36.058Z,32.49
2018-07-02T20:54:05.232Z,32.11
2018-07-02T20:56:34.397Z,32.56
2018-07-02T20:59:03.873Z,33.41
2018-07-02T21:01:33.336Z,33.67
2018-07-02T21:04:02.937Z,33.28
2018-07-02T21:06:32.085Z,34.22
2018-07-02T21:09:01.272Z,33.90
2018-07-02T21:11:30.407Z,34.27
2018-07-02T21:13:59.480Z,34.35
2018-07-02T21:16:28.625Z,34.51
2018-07-02T21:18:57.697Z,33.91
2018-07-02T21:21:26.809Z,35.28
2018-07-02T21:23:55.922Z,35.61
2018-07-02T21:26:25.052Z,35.45
2018-07-02T21:28:54.105Z,35.92
2018-07-02T21:31:23.434Z,35.91
2018-07-02T21:33:52.501Z,36.51
2018-07-02T21:36:21.727Z,36.77
2018-07-02T21:38:50.791Z,37.43
2018-07-02T21:41:20.210Z,37.47
2018-07-02T21:43:49.602Z,37.20
2018-07-02T21:46:20.230Z,38.14
2018-07-02T21:48:49.339Z,38.22
2018-07-02T21:51:18.421Z,38.65
2018-07-02T21:53:47.469Z,38.26
2018-07-02T21:56:16.610Z,38.14
2018-07-02T21:58:45.719Z,38.10
2018-07-02T22:01:19.642Z,38.46
2018-07-02T22:03:48.933Z,38.99
2018-07-02T22:06:18.477Z,39.05
2018-07-02T22:08:47.645Z,38.34
2018-07-02T22:11:17.371Z,39.67
2018-07-02T22:13:46.501Z,39.95
2018-07-02T22:16:15.802Z,39.74
2018-07-02T22:18:44.889Z,39.67
2018-07-02T22:21:14.019Z,39.21
2018-07-02T22:23:43.187Z,39.96
2018-07-02T22:26:12.300Z,39.39
2018-07-02T22:28:41.878Z,40.50
2018-07-02T22:31:11.085Z,40.48
2018-07-02T22:33:40.266Z,41.38
2018-07-02T22:36:09.408Z,40.44
2018-07-02T22:38:38.507Z,41.26
2018-07-02T22:41:07.710Z,41.65
2018-07-02T22:43:36.802Z,41.76
2018-07-02T22:46:05.887Z,41.07
2018-07-02T22:48:34.949Z,40.82
2018-07-02T22:51:04.043Z,40.49
2018-07-02T22:53:33.138Z,40.33
2018-07-02T22:56:04.397Z,41.45
2018-07-02T22:58:33.444Z,41.96
2018-07-02T23:01:02.924Z,42.38
2018-07-02T23:03:32.085Z,41.97
2018-07-02T23:06:01.127Z,42.79
2018-07-02T23:08:30.182Z,42.50
2018-07-02T23:10:59.210Z,42.45
2018-07-02T23:13:28.305Z,42.50
2018-07-02T23:16:05.185Z,42.89
2018-07-02T23:18:34.722Z,42.98
2018-07-02T23:21:03.766Z,42.10
2018-07-02T23:23:32.858Z,42.51
2018-07-02T23:26:01.891Z,41.97
2018-07-02T23:28:30.934Z,42.40
2018-07-02T23:31:00.012Z,42.70
2018-07-02T23:33:29.024Z,42.24
2018-07-02T23:35:58.074Z,42.35
2018-07-02T23:38:27.145Z,43.18
2018-07-02T23:40:56.289Z,42.79
2018-07-02T23:43:25.337Z,42.25
2018-07-02T23:45:54.413Z,43.13
2018-07-02T23:48:23.451Z,43.40
2018-07-02T23:50:52.510Z,42.65
2018-07-02T23:53:21.635Z,42.91
2018-07-02T23:55:50.650Z,42.21
2018-07-02T23:58:19.725Z,42.98
